Time;durP1;ratioP1;P1;durP2;ratioP2;P2;SDS_P1;SDS_P2;PMS_P1;PMS_P2;Temp;Humidity;BMP_temperature;BMP_pressure;BME280_temperature;BME280_humidity;BME280_pressure;Samples;Min_cycle;Max_cycle;Signal;HPM_P1;HPM_P2
2023/09/20 00:00:11;;;;;;;4.35;2.35;;;;;;;13.29;100.00;97309.59;4941339;29;20522;-83
2023/09/20 00:02:39;;;;;;;3.28;2.20;;;;;;;13.29;100.00;97309.59;4943282;29;20407;-81
2023/09/20 00:05:12;;;;;;;3.90;2.30;;;;;;;13.28;100.00;97308.00;4943814;29;20494;-82
2023/09/20 00:07:39;;;;;;;2.90;2.22;;;;;;;13.27;100.00;97311.72;4945007;29;20808;-83
2023/09/20 00:10:11;;;;;;;4.25;2.50;;;;;;;13.26;100.00;97305.59;4946603;29;20415;-83
2023/09/20 00:12:38;;;;;;;3.50;2.42;;;;;;;13.26;100.00;97316.25;4947391;29;20451;-83
2023/09/20 00:15:07;;;;;;;3.55;2.17;;;;;;;13.27;100.00;97319.69;4947993;29;20419;-83
2023/09/20 00:17:34;;;;;;;2.53;1.90;;;;;;;13.25;100.00;97308.53;4942541;29;20420;-84
2023/09/20 00:20:11;;;;;;;4.00;2.00;;;;;;;13.23;100.00;97305.38;4946029;29;20407;-84
2023/09/20 00:22:40;;;;;;;3.05;2.15;;;;;;;13.22;100.00;97301.13;4949518;29;20407;-84
2023/09/20 00:25:07;;;;;;;5.22;2.50;;;;;;;13.22;100.00;97306.44;4949081;29;20410;-84
2023/09/20 00:27:35;;;;;;;5.25;2.35;;;;;;;13.21;100.00;97302.19;4949180;29;20474;-85
2023/09/20 00:30:01;;;;;;;3.70;2.20;;;;;;;13.21;100.00;97302.19;4949305;29;20435;-84
2023/09/20 00:32:30;;;;;;;4.35;2.38;;;;;;;13.17;100.00;97292.06;4948700;29;20447;-82
2023/09/20 00:34:56;;;;;;;4.82;2.20;;;;;;;13.16;100.00;97297.66;4940999;29;20466;-84
2023/09/20 00:37:22;;;;;;;4.00;2.67;;;;;;;13.13;100.00;97287.56;4941004;29;20462;-84
2023/09/20 00:39:49;;;;;;;3.45;2.33;;;;;;;13.10;100.00;97291.53;4940235;29;20412;-84
2023/09/20 00:42:15;;;;;;;3.22;2.28;;;;;;;13.09;100.00;97286.47;4940088;29;20452;-83
2023/09/20 00:44:42;;;;;;;5.50;2.40;;;;;;;13.07;100.00;97293.94;4954721;28;20685;-84
2023/09/20 00:47:08;;;;;;;3.35;2.55;;;;;;;13.06;100.00;97295.00;4939999;29;20404;-84
2023/09/20 00:49:36;;;;;;;4.80;2.08;;;;;;;13.07;100.00;97288.63;4943635;29;20491;-85
2023/09/20 00:52:06;;;;;;;5.25;2.40;;;;;;;13.07;100.00;97289.44;4947440;29;20444;-82
2023/09/20 00:54:33;;;;;;;3.00;2.30;;;;;;;13.07;100.00;97286.75;4942863;29;20399;-83
2023/09/20 00:56:59;;;;;;;2.90;2.08;;;;;;;13.07;100.00;97284.09;4935499;29;20427;-83
2023/09/20 00:59:26;;;;;;;3.00;2.05;;;;;;;13.08;100.00;97284.91;4935794;28;20494;-82
2023/09/20 01:01:54;;;;;;;3.60;2.25;;;;;;;13.07;100.00;97276.13;4935784;29;20408;-83
2023/09/20 01:04:20;;;;;;;2.88;2.38;;;;;;;13.07;100.00;97276.13;4936112;29;20478;-82
2023/09/20 01:06:50;;;;;;;3.97;2.10;;;;;;;13.07;100.00;97273.47;4935707;28;20525;-82
2023/09/20 01:09:16;;;;;;;3.50;2.10;;;;;;;13.07;100.00;97278.00;4935405;29;20406;-81
2023/09/20 01:11:44;;;;;;;3.92;2.35;;;;;;;13.06;100.00;97274.53;4935524;29;20404;-82
2023/09/20 01:14:11;;;;;;;3.10;2.20;;;;;;;13.04;100.00;97273.22;4935220;29;20787;-82
2023/09/20 01:16:37;;;;;;;3.17;2.17;;;;;;;13.02;100.00;97278.00;4935704;29;20454;-82
2023/09/20 01:19:04;;;;;;;3.42;2.42;;;;;;;12.99;100.00;97271.38;4935349;29;20408;-82
2023/09/20 01:21:37;;;;;;;3.17;2.20;;;;;;;12.98;100.00;97274.28;4935372;29;20408;-82
2023/09/20 01:24:04;;;;;;;3.33;2.10;;;;;;;12.95;100.00;97278.28;4935770;29;20572;-82
2023/09/20 01:26:30;;;;;;;3.75;2.28;;;;;;;12.94;100.00;97274.00;4935712;29;20411;-82
2023/09/20 01:28:56;;;;;;;2.60;1.83;;;;;;;12.94;100.00;97275.88;4938708;29;20404;-84
2023/09/20 01:31:23;;;;;;;5.38;2.38;;;;;;;12.91;100.00;97271.13;4935643;29;20651;-83
2023/09/20 01:33:49;;;;;;;5.00;2.53;;;;;;;12.91;100.00;97268.47;4935384;29;20403;-82
2023/09/20 01:36:16;;;;;;;6.80;2.40;;;;;;;12.91;100.00;97274.56;4935294;29;20447;-82
2023/09/20 01:38:44;;;;;;;4.25;2.13;;;;;;;12.89;100.00;97266.06;4935474;29;20400;-82
2023/09/20 01:41:10;;;;;;;3.03;2.20;;;;;;;12.88;100.00;97274.28;4935599;29;20781;-82
2023/09/20 01:43:38;;;;;;;2.95;2.10;;;;;;;12.88;100.00;97274.28;4936143;29;20431;-82
2023/09/20 01:46:04;;;;;;;3.67;2.47;;;;;;;12.85;100.00;97278.31;4936559;29;20426;-82
2023/09/20 01:48:31;;;;;;;3.20;2.15;;;;;;;12.87;100.00;97270.84;4935583;29;20410;-82
2023/09/20 01:50:57;;;;;;;3.03;2.20;;;;;;;12.87;100.00;97275.34;4935712;29;20418;-81
2023/09/20 01:53:24;;;;;;;4.43;2.17;;;;;;;12.87;100.00;97276.16;4935663;29;20410;-83
2023/09/20 01:55:52;;;;;;;3.85;2.40;;;;;;;12.85;100.00;97267.69;4935466;29;20553;-83
2023/09/20 01:58:18;;;;;;;3.38;2.30;;;;;;;12.81;100.00;97271.91;4936140;29;20959;-82
2023/09/20 02:00:50;;;;;;;3.50;2.53;;;;;;;12.77;100.00;97269.00;4935290;28;20506;-82
2023/09/20 02:03:19;;;;;;;2.95;2.20;;;;;;;12.75;100.00;97265.81;4936184;29;20434;-80
2023/09/20 02:05:48;;;;;;;2.97;2.20;;;;;;;12.73;100.00;97262.63;4935080;29;20408;-80
2023/09/20 02:08:15;;;;;;;4.28;2.17;;;;;;;12.71;100.00;97267.41;4934768;29;20415;-80
2023/09/20 02:10:42;;;;;;;3.72;2.38;;;;;;;12.68;100.00;97267.97;4934914;29;20474;-80
2023/09/20 02:13:10;;;;;;;3.60;2.22;;;;;;;12.69;100.00;97258.13;4935251;28;20876;-80
2023/09/20 02:15:36;;;;;;;2.45;1.98;;;;;;;12.68;100.00;97257.34;4934866;29;20399;-82
2023/09/20 02:18:05;;;;;;;3.40;2.40;;;;;;;12.69;100.00;97261.59;4934659;29;20458;-82
2023/09/20 02:20:36;;;;;;;3.35;2.20;;;;;;;12.70;100.00;97254.41;4934772;29;20443;-82
2023/09/20 02:23:04;;;;;;;2.90;1.97;;;;;;;12.70;100.00;97255.22;4934713;29;20407;-83
2023/09/20 02:25:30;;;;;;;3.50;2.10;;;;;;;12.70;100.00;97257.88;4934579;28;20494;-82
2023/09/20 02:27:58;;;;;;;2.60;2.10;;;;;;;12.70;100.00;97249.91;4934557;29;20919;-82
2023/09/20 02:30:35;;;;;;;4.40;2.30;;;;;;;12.72;100.00;97249.59;4934096;29;20412;-83
2023/09/20 02:33:05;;;;;;;5.20;2.40;;;;;;;12.71;100.00;97245.34;4934858;29;20411;-83
2023/09/20 02:35:32;;;;;;;4.53;2.30;;;;;;;12.72;100.00;97247.75;4934400;29;20406;-83
2023/09/20 02:37:59;;;;;;;2.88;2.25;;;;;;;12.71;100.00;97254.13;4938261;29;20478;-83
2023/09/20 02:40:27;;;;;;;6.00;1.90;;;;;;;12.69;100.00;97248.31;4934940;29;20438;-84
2023/09/20 02:42:55;;;;;;;3.10;2.40;;;;;;;12.68;100.00;97252.03;4934662;29;20408;-83
2023/09/20 02:45:24;;;;;;;3.13;2.63;;;;;;;12.67;100.00;97247.78;4934672;29;20903;-83
2023/09/20 02:47:52;;;;;;;3.65;2.38;;;;;;;12.66;100.00;97253.34;4935013;29;20823;-83
2023/09/20 02:50:22;;;;;;;2.95;2.30;;;;;;;12.64;100.00;97252.81;4935394;29;20435;-82
2023/09/20 02:52:49;;;;;;;2.78;2.20;;;;;;;12.61;100.00;97256.81;4937518;29;20407;-83
2023/09/20 02:55:17;;;;;;;5.25;2.40;;;;;;;12.60;100.00;97257.06;4942807;29;20999;-83
2023/09/20 02:57:44;;;;;;;4.20;2.20;;;;;;;12.60;100.00;97257.88;4942919;29;20420;-84
2023/09/20 03:00:15;;;;;;;3.77;2.30;;;;;;;12.61;100.00;97256.00;4942283;29;20404;-84
2023/09/20 03:02:43;;;;;;;3.17;2.15;;;;;;;12.61;100.00;97254.16;4943661;29;20403;-85
2023/09/20 03:05:11;;;;;;;3.53;2.20;;;;;;;12.60;100.00;97244.59;4943208;29;20400;-84
2023/09/20 03:07:38;;;;;;;4.32;2.28;;;;;;;12.59;100.00;97244.84;4943894;29;20441;-84
2023/09/20 03:10:06;;;;;;;3.83;2.33;;;;;;;12.57;100.00;97239.81;4943156;29;20450;-84
2023/09/20 03:12:33;;;;;;;3.15;2.28;;;;;;;12.57;100.00;97237.16;4944442;29;20406;-84
2023/09/20 03:15:04;;;;;;;3.35;2.47;;;;;;;12.56;100.00;97238.19;4950350;29;20383;-84
2023/09/20 03:17:31;;;;;;;4.22;2.28;;;;;;;12.57;100.00;97228.38;4946014;29;20809;-83
2023/09/20 03:19:58;;;;;;;5.68;2.65;;;;;;;12.60;100.00;97244.59;4943257;29;20411;-85
2023/09/20 03:22:25;;;;;;;4.35;2.35;;;;;;;12.59;100.00;97232.38;4942398;29;20440;-84
2023/09/20 03:24:51;;;;;;;4.32;2.50;;;;;;;12.60;100.00;97226.00;4942681;29;20463;-83
2023/09/20 03:27:17;;;;;;;3.90;2.37;;;;;;;12.61;100.00;97224.94;4942805;29;20551;-85
2023/09/20 03:29:46;;;;;;;4.47;2.33;;;;;;;12.62;100.00;97213.25;4943117;29;20400;-84
2023/09/20 03:32:15;;;;;;;3.53;2.28;;;;;;;12.63;100.00;97220.13;4943711;28;20801;-84
2023/09/20 03:34:41;;;;;;;3.42;2.10;;;;;;;12.62;100.00;97217.78;4943542;29;20410;-83
2023/09/20 03:37:10;;;;;;;3.08;2.35;;;;;;;12.60;100.00;97212.72;4942486;29;20423;-83
2023/09/20 03:39:41;;;;;;;4.30;2.42;;;;;;;12.58;100.00;97212.19;4944202;29;20502;-83
2023/09/20 03:42:11;;;;;;;4.35;2.30;;;;;;;12.54;100.00;97213.00;4944150;29;20412;-84
2023/09/20 03:44:39;;;;;;;5.63;2.65;;;;;;;12.47;100.00;97207.97;4943664;29;20410;-83
2023/09/20 03:47:06;;;;;;;4.32;2.40;;;;;;;12.44;100.00;97213.78;4944361;29;20404;-84
2023/09/20 03:49:32;;;;;;;4.95;2.50;;;;;;;12.41;100.00;97209.81;4945135;29;20749;-84
2023/09/20 03:51:59;;;;;;;3.33;2.28;;;;;;;12.40;100.00;97213.53;4945623;29;20443;-84
2023/09/20 03:54:26;;;;;;;3.28;2.22;;;;;;;12.41;100.00;97211.66;4945143;29;20946;-87
2023/09/20 03:56:53;;;;;;;4.32;2.85;;;;;;;12.40;100.00;97207.44;4947451;29;20423;-85
2023/09/20 03:59:19;;;;;;;8.10;3.30;;;;;;;12.38;100.00;97193.63;4955633;29;20441;-83
2023/09/20 04:01:45;;;;;;;4.15;2.50;;;;;;;12.36;100.00;97198.41;4954117;29;20412;-83
2023/09/20 04:04:12;;;;;;;4.15;2.20;;;;;;;12.35;100.00;97196.81;4943152;29;20396;-83
2023/09/20 04:06:38;;;;;;;2.85;2.20;;;;;;;12.34;100.00;97197.88;4935281;29;20768;-84
2023/09/20 04:09:09;;;;;;;2.55;2.15;;;;;;;12.33;100.00;97206.88;4934427;29;20420;-83
2023/09/20 04:11:36;;;;;;;3.08;2.10;;;;;;;12.32;100.00;97195.50;4934993;29;20400;-83
2023/09/20 04:14:05;;;;;;;5.10;2.50;;;;;;;12.34;100.00;97206.63;4931719;29;20408;-83
2023/09/20 04:16:31;;;;;;;3.42;2.20;;;;;;;12.36;100.00;97201.84;4933806;28;20772;-83
2023/09/20 04:18:58;;;;;;;2.97;2.08;;;;;;;12.36;100.00;97201.84;4935650;29;20419;-84
2023/09/20 04:21:24;;;;;;;3.38;2.38;;;;;;;12.38;100.00;97204.25;4934083;28;20494;-84
2023/09/20 04:23:50;;;;;;;5.18;2.63;;;;;;;12.38;100.00;97201.59;4934931;29;20459;-83
2023/09/20 04:26:17;;;;;;;5.13;2.30;;;;;;;12.39;100.00;97195.22;4940287;29;20414;-83
2023/09/20 04:28:43;;;;;;;6.07;2.30;;;;;;;12.40;100.00;97191.53;4940001;28;20407;-87
2023/09/20 04:31:10;;;;;;;3.70;2.20;;;;;;;12.40;100.00;97191.53;4942872;29;20426;-87
2023/09/20 04:33:38;;;;;;;4.22;2.13;;;;;;;12.41;100.00;97193.09;4940506;29;20439;-84
2023/09/20 04:36:05;;;;;;;4.17;2.23;;;;;;;12.40;100.00;97184.31;4934622;29;20545;-82
2023/09/20 04:38:32;;;;;;;2.60;2.10;;;;;;;12.42;100.00;97181.41;4956128;29;20509;-84
2023/09/20 04:40:59;;;;;;;3.28;2.22;;;;;;;12.42;100.00;97181.41;4940901;29;20408;-82
2023/09/20 04:43:26;;;;;;;2.47;1.98;;;;;;;12.45;100.00;97182.75;4939144;28;20403;-84
2023/09/20 04:45:52;;;;;;;3.63;2.20;;;;;;;12.46;100.00;97181.69;4934288;29;20483;-84
2023/09/20 04:48:19;;;;;;;3.00;2.20;;;;;;;12.51;100.00;97186.97;4933501;29;20419;-83
2023/09/20 04:50:49;;;;;;;3.95;2.20;;;;;;;12.51;100.00;97181.66;4940915;29;20404;-84
2023/09/20 04:53:16;;;;;;;4.65;2.72;;;;;;;12.50;100.00;97182.72;4935119;29;20411;-82
2023/09/20 04:55:43;;;;;;;4.07;2.47;;;;;;;12.47;100.00;97180.63;4940498;28;20442;-82
2023/09/20 04:58:10;;;;;;;3.60;2.40;;;;;;;12.46;100.00;97185.13;4935633;29;20424;-84
2023/09/20 05:00:37;;;;;;;3.42;2.40;;;;;;;12.45;100.00;97185.41;4935568;29;20594;-83
2023/09/20 05:03:03;;;;;;;3.78;2.10;;;;;;;12.41;100.00;97183.25;4936410;28;20407;-82
2023/09/20 05:05:31;;;;;;;3.43;2.43;;;;;;;12.41;100.00;97180.59;4937271;29;20657;-86
2023/09/20 05:07:57;;;;;;;5.00;2.65;;;;;;;12.41;100.00;97177.94;4937065;29;20495;-84
2023/09/20 05:10:23;;;;;;;4.53;2.50;;;;;;;12.41;100.00;97180.59;4937299;29;20404;-83
2023/09/20 05:12:49;;;;;;;5.10;2.30;;;;;;;12.41;100.00;97182.47;4938671;29;20967;-84
2023/09/20 05:15:16;;;;;;;3.60;2.30;;;;;;;12.43;100.00;97182.19;4939049;29;20403;-85
2023/09/20 05:17:45;;;;;;;2.88;2.20;;;;;;;12.46;100.00;97184.34;4947195;29;20448;-83
2023/09/20 05:20:14;;;;;;;3.08;2.50;;;;;;;12.50;100.00;97180.88;4939178;29;20440;-84
2023/09/20 05:22:44;;;;;;;3.92;2.55;;;;;;;12.53;100.00;97184.84;4938165;29;22330;-82
2023/09/20 05:25:11;;;;;;;4.03;2.30;;;;;;;12.54;100.00;97184.59;4938619;29;20403;-83
2023/09/20 05:27:37;;;;;;;3.55;2.35;;;;;;;12.56;100.00;97182.44;4937944;29;20440;-83
2023/09/20 05:30:04;;;;;;;2.45;2.20;;;;;;;12.56;100.00;97187.75;4938477;29;20483;-84
2023/09/20 05:32:30;;;;;;;3.60;2.35;;;;;;;12.59;100.00;97189.09;4939491;29;20411;-83
2023/09/20 05:34:56;;;;;;;3.88;2.40;;;;;;;12.60;100.00;97180.06;4940615;29;20438;-84
2023/09/20 05:37:22;;;;;;;3.97;2.42;;;;;;;12.61;100.00;97186.97;4937727;29;20455;-83
2023/09/20 05:39:50;;;;;;;4.10;2.00;;;;;;;12.61;100.00;97179.00;4937984;29;20414;-84
2023/09/20 05:42:17;;;;;;;4.82;2.08;;;;;;;12.62;100.00;97178.75;4936263;29;20443;-84
2023/09/20 05:44:43;;;;;;;3.47;1.97;;;;;;;12.64;100.00;97170.47;4936798;29;20470;-83
2023/09/20 05:47:09;;;;;;;6.68;2.50;;;;;;;12.68;100.00;97168.91;4937650;29;20415;-83
2023/09/20 05:49:36;;;;;;;5.83;2.60;;;;;;;12.79;100.00;97179.22;4940877;28;20460;-84
2023/09/20 05:52:05;;;;;;;3.78;2.40;;;;;;;12.85;100.00;97176.56;4942946;29;20415;-82
2023/09/20 05:54:31;;;;;;;7.28;2.20;;;;;;;12.92;100.00;97169.91;4939565;28;20451;-80
2023/09/20 05:56:59;;;;;;;3.53;2.40;;;;;;;13.02;100.00;97182.31;4939186;29;20419;-80
2023/09/20 05:59:26;;;;;;;6.50;3.13;;;;;;;13.07;100.00;97185.78;4938109;29;20782;-80
2023/09/20 06:01:52;;;;;;;5.80;2.83;;;;;;;13.14;100.00;97178.34;4921743;29;20448;-84
2023/09/20 06:04:19;;;;;;;5.72;2.50;;;;;;;13.21;100.00;97187.88;4918576;29;20447;-83
2023/09/20 06:06:45;;;;;;;3.40;2.13;;;;;;;13.27;100.00;97192.91;4919797;29;20563;-82
2023/09/20 06:09:11;;;;;;;5.40;2.45;;;;;;;13.34;100.00;97187.28;4917734;29;20758;-84
2023/09/20 06:11:37;;;;;;;5.97;2.38;;;;;;;13.37;100.00;97187.56;4917288;29;20416;-82
2023/09/20 06:14:05;;;;;;;4.43;2.20;;;;;;;13.43;100.00;97185.66;4918126;29;20412;-82
2023/09/20 06:16:32;;;;;;;3.88;2.15;;;;;;;13.46;100.00;97183.22;4918483;29;20769;-81
2023/09/20 06:18:58;;;;;;;8.82;2.35;;;;;;;13.53;100.00;97188.28;4918872;29;20408;-81
2023/09/20 06:21:24;;;;;;;4.80;2.30;;;;;;;13.64;100.00;97191.66;4918261;29;20496;-82
2023/09/20 06:23:50;;;;;;;4.38;2.20;;;;;;;13.71;100.00;97184.16;4918860;29;20409;-82
2023/09/20 06:26:18;;;;;;;4.13;2.20;;;;;;;13.80;100.00;97185.16;4925216;29;20510;-82
2023/09/20 06:28:44;;;;;;;4.45;2.10;;;;;;;13.94;100.00;97186.94;4939294;29;20432;-82
2023/09/20 06:31:14;;;;;;;4.23;2.20;;;;;;;14.05;100.00;97173.56;4939395;29;20409;-82
2023/09/20 06:33:42;;;;;;;5.00;2.28;;;;;;;14.16;100.00;97180.38;4935520;28;20427;-82
2023/09/20 06:36:08;;;;;;;4.63;2.40;;;;;;;14.25;100.00;97171.53;4940719;29;20775;-79
2023/09/20 06:38:34;;;;;;;3.80;2.00;;;;;;;14.31;100.00;97172.25;4931496;29;20452;-80
2023/09/20 06:41:00;;;;;;;3.20;1.98;;;;;;;14.34;100.00;97161.06;4937884;29;20416;-81
2023/09/20 06:43:27;;;;;;;4.20;2.15;;;;;;;14.39;100.00;97160.25;4950515;29;20436;-80
2023/09/20 06:45:54;;;;;;;3.23;1.73;;;;;;;14.45;100.00;97170.56;4950880;28;20441;-83
2023/09/20 06:48:22;;;;;;;8.45;2.50;;;;;;;14.45;100.00;97161.78;4945143;29;20413;-84
2023/09/20 06:50:49;;;;;;;5.53;2.20;;;;;;;14.46;100.00;97158.03;4948190;29;20411;-82
2023/09/20 06:53:17;;;;;;;2.58;2.03;;;;;;;14.53;100.00;97156.63;4951896;29;20418;-78
2023/09/20 06:55:43;;;;;;;3.58;2.00;;;;;;;14.64;100.00;97152.03;4950941;29;20408;-81
2023/09/20 06:58:09;;;;;;;2.53;1.98;;;;;;;14.70;100.00;97154.34;4948678;29;20438;-81
2023/09/20 07:00:36;;;;;;;5.60;2.00;;;;;;;14.85;100.00;97148.06;4954458;29;20436;-80
2023/09/20 07:03:03;;;;;;;5.15;1.95;;;;;;;14.93;100.00;97144.75;4964132;28;20411;-81
2023/09/20 07:05:30;;;;;;;3.58;2.05;;;;;;;15.08;100.00;97144.59;4953283;29;20407;-82
2023/09/20 07:07:58;;;;;;;6.53;1.97;;;;;;;15.17;100.00;97152.75;4953105;29;20408;-82
2023/09/20 07:10:26;;;;;;;6.18;2.10;;;;;;;15.31;100.00;97139.50;4952733;29;20408;-81
2023/09/20 07:12:54;;;;;;;4.68;2.22;;;;;;;15.35;100.00;97138.63;4959631;28;20457;-80
2023/09/20 07:15:24;;;;;;;3.72;1.90;;;;;;;15.47;100.00;97133.69;4946688;29;20426;-80
2023/09/20 07:18:00;;;;;;;8.38;2.45;;;;;;;15.57;100.00;97138.09;4944793;29;20447;-82
2023/09/20 07:20:28;;;;;;;5.47;2.50;;;;;;;15.68;100.00;97136.88;4952567;28;21030;-83
2023/09/20 07:22:56;;;;;;;4.80;1.83;;;;;;;15.83;100.00;97123.28;4950156;28;20404;-82
2023/09/20 07:25:27;;;;;;;7.05;2.20;;;;;;;15.90;100.00;97132.81;4947388;29;20408;-82
2023/09/20 07:27:55;;;;;;;1.80;1.50;;;;;;;16.05;100.00;97127.22;4949811;28;20497;-81
2023/09/20 07:30:23;;;;;;;2.83;1.67;;;;;;;16.13;100.00;97129.22;4948461;29;20435;-83
2023/09/20 07:32:50;;;;;;;3.20;1.80;;;;;;;16.16;100.00;97131.31;4948209;28;20474;-81
2023/09/20 07:38:04;;;;;;;2.75;1.70;;;;;;;16.29;100.00;97124.41;4948937;29;20443;-81
2023/09/20 07:40:31;;;;;;;3.28;1.80;;;;;;;16.37;100.00;97127.22;4949000;29;20403;-82
2023/09/20 07:43:04;;;;;;;3.42;1.77;;;;;;;16.41;100.00;97130.06;4949214;28;20408;-81
2023/09/20 07:45:41;;;;;;;2.17;1.50;;;;;;;16.48;100.00;97122.47;4950087;28;20412;-80
2023/09/20 07:48:12;;;;;;;1.83;1.40;;;;;;;16.58;100.00;97130.31;4943326;29;20915;-81
2023/09/20 07:50:43;;;;;;;2.63;1.73;;;;;;;16.61;100.00;97121.75;4951110;29;20461;-81
2023/09/20 07:53:11;;;;;;;2.45;1.50;;;;;;;16.70;100.00;97117.28;4947311;29;20403;-80
2023/09/20 07:55:43;;;;;;;3.00;1.60;;;;;;;16.73;100.00;97122.03;4951228;29;20403;-82
2023/09/20 07:58:10;;;;;;;2.03;1.48;;;;;;;16.77;100.00;97116.88;4949831;29;20423;-81
2023/09/20 08:00:40;;;;;;;2.35;1.50;;;;;;;16.80;100.00;97109.06;4954331;29;20406;-81
2023/09/20 08:03:06;;;;;;;3.07;1.60;;;;;;;16.76;100.00;97109.97;4944539;29;20482;-81
2023/09/20 08:05:33;;;;;;;2.88;1.58;;;;;;;16.81;100.00;97113.31;4942582;29;20539;-81
2023/09/20 08:08:00;;;;;;;3.22;1.40;;;;;;;16.83;100.00;97110.34;4942775;29;20494;-83
2023/09/20 08:10:28;;;;;;;2.83;1.67;;;;;;;16.83;100.00;97103.13;4942213;29;20412;-81
2023/09/20 08:12:54;;;;;;;2.80;1.48;;;;;;;16.89;100.00;97101.94;4949108;29;20411;-80
2023/09/20 08:15:20;;;;;;;2.67;1.60;;;;;;;16.93;100.00;97099.44;4947813;28;20418;-80
2023/09/20 08:20:37;;;;;;;1.40;1.30;;;;;;;17.19;100.00;97097.84;4945014;29;20407;-80
2023/09/20 09:01:46;;;;;;;5.10;1.90;;;;;;;19.82;100.00;97113.47;4944802;29;20459;-85
2023/09/20 09:04:16;;;;;;;3.13;1.65;;;;;;;19.98;100.00;97101.16;4944732;29;20404;-84
2023/09/20 09:06:42;;;;;;;2.80;1.40;;;;;;;20.07;100.00;97102.69;4942381;29;20859;-84
2023/09/20 09:09:09;;;;;;;2.13;1.63;;;;;;;20.15;100.00;97113.78;4945725;29;20845;-84
2023/09/20 09:11:35;;;;;;;2.28;1.73;;;;;;;20.22;100.00;97098.75;4949314;29;20472;-86
2023/09/20 09:14:03;;;;;;;2.83;1.75;;;;;;;20.09;100.00;97100.47;4945884;29;20959;-85
2023/09/20 09:16:31;;;;;;;2.03;1.58;;;;;;;20.04;100.00;97102.56;4945068;29;20765;-85
2023/09/20 09:18:57;;;;;;;2.67;1.60;;;;;;;20.06;100.00;97095.78;4945526;29;20431;-85
2023/09/20 09:21:25;;;;;;;3.85;1.70;;;;;;;20.00;100.00;97085.47;4944946;29;20404;-86
2023/09/20 09:23:52;;;;;;;3.60;1.80;;;;;;;20.04;100.00;97089.13;4944942;29;20427;-86
2023/09/20 09:26:18;;;;;;;3.17;1.60;;;;;;;20.01;100.00;97087.06;4945289;29;20415;-86
2023/09/20 09:28:46;;;;;;;3.28;1.60;;;;;;;20.09;100.00;97079.00;4945274;29;20416;-84
2023/09/20 09:31:15;;;;;;;3.73;1.87;;;;;;;20.26;100.00;97088.91;4958234;29;20538;-86
2023/09/20 09:33:41;;;;;;;1.45;1.33;;;;;;;20.37;100.00;97084.03;4964874;28;20449;-85
2023/09/20 09:36:10;;;;;;;3.28;1.50;;;;;;;20.50;100.00;97085.72;4965654;28;20402;-86
2023/09/20 09:38:36;;;;;;;3.55;1.75;;;;;;;20.62;100.00;97085.03;4963897;28;20461;-85
2023/09/20 09:41:03;;;;;;;5.10;1.98;;;;;;;20.69;100.00;97075.34;4964407;28;20437;-84
2023/09/20 09:43:29;;;;;;;1.90;1.30;;;;;;;20.93;100.00;97068.56;4963175;29;20434;-85
2023/09/20 09:46:04;;;;;;;2.78;1.60;;;;;;;21.17;100.00;97064.19;4963110;28;20457;-84
2023/09/20 09:48:32;;;;;;;3.60;1.95;;;;;;;21.32;100.00;97067.41;4964401;29;20408;-86
2023/09/20 09:50:59;;;;;;;2.47;1.40;;;;;;;21.51;100.00;97065.81;4964032;29;20474;-85
2023/09/20 09:53:28;;;;;;;2.35;1.77;;;;;;;21.57;100.00;97058.34;4963344;28;20493;-84
2023/09/20 09:55:55;;;;;;;1.90;1.50;;;;;;;21.69;100.00;97052.22;4963425;29;20397;-85
2023/09/20 09:58:21;;;;;;;4.82;1.83;;;;;;;21.47;100.00;97056.06;4963533;29;20426;-85
2023/09/20 10:00:53;;;;;;;4.25;2.08;;;;;;;21.31;100.00;97052.38;4963563;28;20433;-84
2023/09/20 10:03:29;;;;;;;3.22;1.67;;;;;;;21.40;100.00;97048.50;4977786;28;20402;-86
2023/09/20 10:06:05;;;;;;;4.32;2.30;;;;;;;21.46;100.00;97055.25;4967937;29;20406;-86
2023/09/20 10:08:37;;;;;;;3.13;1.85;;;;;;;21.37;100.00;97049.16;4960389;29;20404;-87
2023/09/20 10:11:05;;;;;;;3.60;1.70;;;;;;;21.31;100.00;97042.38;4950470;29;20407;-85
2023/09/20 10:13:33;;;;;;;2.75;1.73;;;;;;;21.21;100.00;97040.06;4959557;29;20415;-87
2023/09/20 10:16:04;;;;;;;3.78;2.00;;;;;;;21.21;100.00;97040.88;4957598;29;20487;-85
2023/09/20 10:18:33;;;;;;;2.88;1.95;;;;;;;21.29;100.00;97043.81;4944429;29;20420;-85
2023/09/20 10:21:14;;;;;;;3.25;2.03;;;;;;;21.32;100.00;97041.28;4944075;29;20391;-84
2023/09/20 10:23:42;;;;;;;3.17;2.20;;;;;;;21.37;100.00;97042.97;4940652;29;20414;-84
2023/09/20 10:26:13;;;;;;;3.13;1.98;;;;;;;21.46;100.00;97035.63;4941575;29;20483;-84
2023/09/20 10:28:41;;;;;;;3.47;2.25;;;;;;;21.68;100.00;97037.16;4942346;29;20404;-85
2023/09/20 10:31:13;;;;;;;4.35;2.25;;;;;;;21.75;100.00;97027.44;4942007;29;20448;-84
2023/09/20 10:33:45;;;;;;;3.20;2.10;;;;;;;21.58;96.32;97025.69;4940820;29;20403;-84
2023/09/20 10:36:18;;;;;;;3.10;2.00;;;;;;;21.75;98.99;97024.75;4941187;29;20408;-85
2023/09/20 10:38:46;;;;;;;5.70;2.40;;;;;;;21.60;97.13;97014.56;4940681;29;20761;-82
2023/09/20 10:41:13;;;;;;;3.20;2.00;;;;;;;21.67;100.00;97011.34;4940653;29;20443;-84
2023/09/20 10:43:44;;;;;;;2.38;1.80;;;;;;;21.72;100.00;97000.38;4940336;29;20431;-84
2023/09/20 10:46:12;;;;;;;2.72;1.92;;;;;;;21.86;100.00;97001.66;4941055;29;20425;-84
2023/09/20 10:48:41;;;;;;;3.95;2.30;;;;;;;21.85;96.99;97001.97;4941572;29;20411;-84
2023/09/20 10:51:07;;;;;;;3.58;2.20;;;;;;;21.73;94.85;96996.53;4939974;29;20433;-84
2023/09/20 10:53:56;;;;;;;3.87;2.47;;;;;;;21.77;97.52;96990.19;4940860;29;20430;-84
2023/09/20 10:56:54;;;;;;;4.00;2.30;;;;;;;21.96;94.15;96981.56;4940930;28;20403;-85
2023/09/20 10:59:21;;;;;;;4.32;2.58;;;;;;;21.84;95.29;96982.34;4940793;29;20789;-84
2023/09/20 11:01:50;;;;;;;2.95;2.28;;;;;;;21.89;94.51;96982.09;4945065;29;20403;-85
2023/09/20 11:04:16;;;;;;;2.88;2.05;;;;;;;22.06;95.74;96970.38;4946334;28;20426;-83
2023/09/20 11:06:45;;;;;;;3.25;2.25;;;;;;;22.08;91.54;96967.34;4955798;29;20412;-84
2023/09/20 11:09:15;;;;;;;3.60;2.20;;;;;;;22.21;96.09;96964.34;4942178;29;20423;-84
2023/09/20 11:11:42;;;;;;;4.22;2.58;;;;;;;22.40;93.33;96963.78;4941109;29;20408;-83
2023/09/20 11:14:08;;;;;;;3.05;2.08;;;;;;;22.58;88.24;96962.41;4944963;29;20416;-83
2023/09/20 11:16:36;;;;;;;4.05;2.40;;;;;;;22.63;90.57;96961.41;4942215;29;20483;-81
2023/09/20 11:19:03;;;;;;;3.35;2.05;;;;;;;22.67;91.03;96957.69;4951312;29;20452;-84
2023/09/20 11:21:29;;;;;;;2.40;1.85;;;;;;;22.85;94.04;96950.16;4945918;29;20434;-81
2023/09/20 11:23:55;;;;;;;2.72;1.90;;;;;;;23.08;94.78;96947.75;4950740;29;20465;-85
2023/09/20 11:26:27;;;;;;;3.00;1.73;;;;;;;23.43;94.13;96954.13;4936749;29;20442;-83
2023/09/20 11:28:55;;;;;;;5.40;2.58;;;;;;;23.68;89.00;96945.94;4953273;29;20800;-85
2023/09/20 11:31:29;;;;;;;3.63;2.22;;;;;;;23.69;88.67;96947.50;4960806;29;20406;-84
2023/09/20 11:33:58;;;;;;;4.28;2.20;;;;;;;23.78;83.16;96935.41;4945597;29;20423;-85
2023/09/20 11:36:25;;;;;;;3.17;2.20;;;;;;;24.13;86.73;96938.19;4943512;29;20407;-84
2023/09/20 11:38:51;;;;;;;3.85;2.38;;;;;;;24.43;87.80;96941.28;4936883;29;20429;-83
2023/09/20 11:41:18;;;;;;;3.57;2.33;;;;;;;24.73;85.78;96936.16;4942917;29;20411;-82
2023/09/20 11:43:47;;;;;;;4.00;2.38;;;;;;;24.68;78.04;96929.06;4943713;29;20431;-84
2023/09/20 11:46:16;;;;;;;3.10;2.13;;;;;;;24.78;81.13;96943.19;4954325;28;20470;-84
2023/09/20 11:48:43;;;;;;;3.22;2.25;;;;;;;25.05;81.05;96940.34;4940269;29;20411;-83
2023/09/20 11:51:10;;;;;;;3.78;2.00;;;;;;;25.18;81.48;96937.50;4960265;29;20485;-84
2023/09/20 11:53:36;;;;;;;2.13;1.53;;;;;;;25.38;83.59;96928.22;4964728;28;20497;-84
2023/09/20 11:56:03;;;;;;;4.10;1.80;;;;;;;25.26;80.88;96923.72;4946642;28;20405;-85
2023/09/20 11:58:34;;;;;;;2.03;1.50;;;;;;;25.50;83.21;96916.44;4940882;29;20427;-85
2023/09/20 12:01:04;;;;;;;3.20;1.60;;;;;;;25.21;78.31;96904.25;4936698;29;20403;-84
2023/09/20 12:03:31;;;;;;;5.00;1.60;;;;;;;25.28;78.83;96913.31;4955548;28;20416;-86
2023/09/20 12:05:57;;;;;;;2.95;1.55;;;;;;;25.36;80.65;96906.09;4950050;29;20410;-84
2023/09/20 12:08:30;;;;;;;1.73;1.40;;;;;;;25.66;82.92;96901.66;4947585;29;20416;-84
2023/09/20 12:10:56;;;;;;;1.30;1.20;;;;;;;25.99;85.41;96897.56;4942552;29;20435;-81
2023/09/20 12:13:22;;;;;;;2.70;1.33;;;;;;;26.26;83.01;96901.91;4946219;29;20911;-82